Time;durP1;ratioP1;P1;durP2;ratioP2;P2;SDS_P1;SDS_P2;PMS_P1;PMS_P2;Temp;Humidity;BMP_temperature;BMP_pressure;BME280_temperature;BME280_humidity;BME280_pressure;Samples;Min_cycle;Max_cycle;Signal;HPM_P1;HPM_P2
2022/05/13 00:00:11;;;;;;;344.53;160.50;;;;;;;18.47;60.49;99884.66;340945;29;1310;-75
2022/05/13 00:00:22;;;;;;;345.42;159.15;;;;;;;18.48;60.88;99890.81;338338;29;1065;-76
2022/05/13 00:00:32;;;;;;;344.90;159.88;;;;;;;18.47;60.77;99884.66;334588;29;1273;-75
2022/05/13 00:00:43;;;;;;;343.48;158.15;;;;;;;18.46;60.79;99887.41;338431;29;1291;-74
2022/05/13 00:00:53;;;;;;;341.48;157.02;;;;;;;18.46;61.07;99884.75;337165;29;1117;-74
2022/05/13 00:01:05;;;;;;;339.40;154.80;;;;;;;18.43;60.82;99887.63;338360;29;1217;-76
2022/05/13 00:01:15;;;;;;;337.02;156.10;;;;;;;18.45;60.60;99888.38;338521;29;1390;-77
2022/05/13 00:01:26;;;;;;;336.53;155.40;;;;;;;18.43;60.53;99883.16;338349;29;1178;-77
2022/05/13 00:01:36;;;;;;;336.75;155.13;;;;;;;18.45;60.53;99883.06;341942;28;1218;-76
2022/05/13 00:01:47;;;;;;;335.43;153.03;;;;;;;18.46;60.22;99884.75;339778;29;951;-78
2022/05/13 00:01:57;;;;;;;335.33;153.70;;;;;;;18.44;60.17;99884.88;336943;29;1353;-76
2022/05/13 00:02:08;;;;;;;336.67;154.70;;;;;;;18.46;60.21;99887.41;338861;29;1308;-75
2022/05/13 00:02:18;;;;;;;337.92;155.25;;;;;;;18.46;60.08;99884.75;339665;29;1704;-76
2022/05/13 00:02:29;;;;;;;337.25;154.93;;;;;;;18.47;60.20;99881.16;336997;29;914;-76
2022/05/13 00:02:39;;;;;;;336.57;154.73;;;;;;;18.47;60.27;99884.66;337192;29;1227;-76
2022/05/13 00:02:50;;;;;;;339.10;158.52;;;;;;;18.46;60.29;99877.66;340732;28;1122;-76
2022/05/13 00:03:00;;;;;;;339.30;157.17;;;;;;;18.47;60.29;99883.81;338591;29;858;-76
2022/05/13 00:03:11;;;;;;;338.60;157.80;;;;;;;18.46;60.34;99879.47;338369;29;1534;-75
2022/05/13 00:03:21;;;;;;;338.00;156.53;;;;;;;18.45;60.04;99883.91;337206;29;925;-75
2022/05/13 00:03:32;;;;;;;339.03;156.13;;;;;;;18.46;60.09;99882.09;341001;28;1193;-76
2022/05/13 00:03:42;;;;;;;340.13;157.63;;;;;;;18.46;60.02;99887.41;339698;29;1281;-75
2022/05/13 00:03:52;;;;;;;342.43;159.47;;;;;;;18.46;60.01;99882.97;335845;29;1384;-77
2022/05/13 00:04:03;;;;;;;345.13;163.20;;;;;;;18.44;60.15;99873.41;340968;29;1268;-77
2022/05/13 00:04:13;;;;;;;344.00;159.73;;;;;;;18.47;60.24;99878.50;339799;29;859;-76
2022/05/13 00:04:24;;;;;;;341.40;156.47;;;;;;;18.44;59.96;99882.22;339752;29;873;-76
2022/05/13 00:04:35;;;;;;;338.83;155.80;;;;;;;18.45;60.12;99880.41;336631;29;1956;-77
2022/05/13 00:04:45;;;;;;;336.52;155.85;;;;;;;18.46;60.11;99879.47;336857;29;1495;-77
2022/05/13 00:04:56;;;;;;;337.65;156.40;;;;;;;18.44;59.93;99878.72;335668;29;1517;-75
2022/05/13 00:05:07;;;;;;;337.57;157.13;;;;;;;18.43;60.02;99877.00;337023;29;1627;-75
2022/05/13 00:05:17;;;;;;;340.73;159.27;;;;;;;18.44;60.23;99881.38;338537;29;1022;-77
2022/05/13 00:05:28;;;;;;;339.70;159.97;;;;;;;18.41;59.76;99884.22;339856;29;1257;-76
2022/05/13 00:05:38;;;;;;;339.23;159.17;;;;;;;18.39;60.07;99880.81;336988;29;904;-76
2022/05/13 00:05:52;;;;;;;339.17;158.15;;;;;;;18.40;60.16;99871.94;334486;29;1419;-76
2022/05/13 00:06:03;;;;;;;340.17;155.90;;;;;;;18.37;60.10;99875.63;335911;29;942;-78
2022/05/13 00:06:14;;;;;;;337.80;154.38;;;;;;;18.38;60.18;99877.34;335905;29;939;-77
2022/05/13 00:06:24;;;;;;;335.35;152.13;;;;;;;18.39;60.21;99870.22;335805;29;1677;-76
2022/05/13 00:06:35;;;;;;;335.23;152.67;;;;;;;18.39;60.31;99875.53;335883;29;1199;-77
2022/05/13 00:06:45;;;;;;;336.98;154.80;;;;;;;18.39;60.32;99868.44;340931;29;1229;-75
2022/05/13 00:06:56;;;;;;;340.10;157.37;;;;;;;18.38;60.39;99869.38;341085;28;987;-78
2022/05/13 00:07:06;;;;;;;338.02;156.55;;;;;;;18.40;60.25;99871.94;338369;29;1221;-76
2022/05/13 00:07:17;;;;;;;337.13;153.70;;;;;;;18.40;60.44;99874.56;336831;29;2763;-76
2022/05/13 00:07:27;;;;;;;337.83;155.88;;;;;;;18.41;60.21;99873.63;337239;29;6010;-77
2022/05/13 00:07:37;;;;;;;338.77;157.30;;;;;;;18.40;60.13;99877.22;339813;29;5074;-76
2022/05/13 00:07:48;;;;;;;339.67;159.82;;;;;;;18.40;60.54;99875.44;338384;29;1851;-76
2022/05/13 00:07:58;;;;;;;340.30;159.30;;;;;;;18.42;60.31;99872.66;337905;29;3235;-76
2022/05/13 00:08:09;;;;;;;341.73;160.13;;;;;;;18.41;60.16;99873.63;338216;29;1749;-76
2022/05/13 00:08:19;;;;;;;342.03;159.70;;;;;;;18.41;60.28;99874.47;338501;29;926;-76
2022/05/13 00:08:30;;;;;;;340.13;156.90;;;;;;;18.42;60.27;99877.97;334831;29;1572;-77
2022/05/13 00:08:40;;;;;;;342.53;158.20;;;;;;;18.42;60.43;99877.97;339736;29;1210;-77
2022/05/13 00:08:50;;;;;;;338.37;157.03;;;;;;;18.41;60.14;99878.91;339759;29;889;-77
2022/05/13 00:09:01;;;;;;;339.87;157.53;;;;;;;18.39;60.43;99870.22;339873;29;866;-77
2022/05/13 00:09:11;;;;;;;337.73;156.10;;;;;;;18.41;60.32;99878.91;337727;29;1941;-76
2022/05/13 00:09:56;;;;;;;338.90;156.63;;;;;;;18.42;60.27;99875.31;335902;29;895;-76
2022/05/13 00:10:01;;;;;;;339.15;157.35;;;;;;;18.44;60.29;99879.56;337084;29;1116;-75
2022/05/13 00:10:12;;;;;;;335.77;155.10;;;;;;;18.43;60.13;99877.88;338336;29;1032;-76
2022/05/13 00:10:24;;;;;;;336.70;155.20;;;;;;;18.43;60.21;99879.66;339704;29;854;-76
2022/05/13 00:10:35;;;;;;;337.02;154.27;;;;;;;18.43;60.40;99880.50;338542;29;900;-77
2022/05/13 00:10:47;;;;;;;336.08;152.55;;;;;;;18.44;60.31;99878.72;337074;29;1505;-77
2022/05/13 00:10:57;;;;;;;337.48;154.30;;;;;;;18.43;60.35;99877.00;336997;29;1313;-76
2022/05/13 00:11:08;;;;;;;335.97;155.77;;;;;;;18.40;60.57;99878.06;338398;29;1206;-76
2022/05/13 00:11:18;;;;;;;338.75;157.60;;;;;;;18.37;60.76;99872.13;338328;29;1340;-77
2022/05/13 00:11:29;;;;;;;335.13;155.67;;;;;;;18.36;60.83;99873.09;338534;29;1353;-77
2022/05/13 00:11:39;;;;;;;332.77;153.30;;;;;;;18.35;60.54;99874.88;335852;29;1237;-76
2022/05/13 00:11:50;;;;;;;332.50;153.53;;;;;;;18.31;60.79;99877.84;339786;29;1012;-75
2022/05/13 00:12:00;;;;;;;332.80;152.68;;;;;;;18.28;60.97;99879.75;337170;29;1013;-75
2022/05/13 00:12:11;;;;;;;334.80;154.23;;;;;;;18.29;61.07;99876.16;337231;29;976;-76
2022/05/13 00:12:21;;;;;;;335.35;152.88;;;;;;;18.30;60.83;99874.34;334403;29;2083;-75
2022/05/13 00:12:38;;;;;;;335.48;154.68;;;;;;;18.32;60.79;99879.53;337239;29;872;-75
2022/05/13 00:12:48;;;;;;;333.33;153.82;;;;;;;18.33;61.07;99875.94;337084;29;953;-76
2022/05/13 00:12:58;;;;;;;332.50;151.37;;;;;;;18.33;60.82;99870.66;338197;29;1511;-76
2022/05/13 00:13:09;;;;;;;335.98;154.50;;;;;;;18.33;60.83;99868.00;336819;29;1406;-75
2022/05/13 00:13:19;;;;;;;336.57;153.13;;;;;;;18.33;60.86;99873.28;341133;29;1237;-77
2022/05/13 00:13:30;;;;;;;339.15;155.23;;;;;;;18.35;61.00;99884.63;337005;29;1893;-75
2022/05/13 00:13:40;;;;;;;337.03;154.27;;;;;;;18.35;61.01;99882.00;338481;29;882;-76
2022/05/13 00:13:51;;;;;;;336.92;155.63;;;;;;;18.32;60.96;99879.53;341155;29;893;-77
2022/05/13 00:14:03;;;;;;;337.53;156.30;;;;;;;18.33;61.02;99874.16;340325;29;1684;-76
2022/05/13 00:14:13;;;;;;;338.42;157.05;;;;;;;18.33;61.00;99871.50;338459;29;1310;-76
2022/05/13 00:14:23;;;;;;;337.38;156.15;;;;;;;18.33;61.29;99878.59;338139;29;2509;-76
2022/05/13 00:14:34;;;;;;;336.13;156.30;;;;;;;18.33;60.78;99875.94;338094;29;1208;-77
2022/05/13 00:14:44;;;;;;;336.10;156.90;;;;;;;18.35;61.07;99876.69;335879;29;854;-77
2022/05/13 00:14:55;;;;;;;337.73;157.40;;;;;;;18.37;60.82;99877.44;338307;29;1344;-75
2022/05/13 00:15:08;;;;;;;341.15;157.60;;;;;;;18.37;61.03;99872.97;341160;29;997;-76
2022/05/13 00:15:21;;;;;;;340.67;157.63;;;;;;;18.39;61.01;99872.88;340942;29;1412;-76
2022/05/13 00:15:31;;;;;;;336.42;155.88;;;;;;;18.40;60.84;99879.88;339044;29;1282;-76
2022/05/13 00:15:42;;;;;;;337.93;156.10;;;;;;;18.40;60.93;99877.22;337078;29;1846;-76
2022/05/13 00:15:54;;;;;;;338.60;156.32;;;;;;;18.38;60.68;99873.84;339806;29;833;-75
2022/05/13 00:16:05;;;;;;;337.98;153.15;;;;;;;18.35;60.92;99879.34;339770;29;1521;-75
2022/05/13 00:16:15;;;;;;;335.88;152.18;;;;;;;18.37;60.82;99877.44;338436;29;836;-75
2022/05/13 00:16:26;;;;;;;333.85;153.27;;;;;;;18.37;60.88;99870.34;335734;29;3015;-76
2022/05/13 00:16:37;;;;;;;336.30;156.13;;;;;;;18.35;60.75;99868.75;336188;29;5915;-76
2022/05/13 00:16:49;;;;;;;337.27;157.93;;;;;;;18.37;60.90;99874.78;339249;29;3822;-74
2022/05/13 00:16:59;;;;;;;343.08;160.43;;;;;;;18.39;60.86;99880.81;339450;29;1968;-75
2022/05/13 00:17:10;;;;;;;343.60;160.17;;;;;;;18.40;60.76;99874.56;336550;29;5921;-75
2022/05/13 00:17:21;;;;;;;346.13;160.07;;;;;;;18.41;60.80;99876.28;338867;29;1499;-76
2022/05/13 00:17:31;;;;;;;341.13;158.07;;;;;;;18.39;60.85;99875.53;339059;29;885;-77
2022/05/13 00:17:42;;;;;;;337.90;155.40;;;;;;;18.38;60.77;99874.69;339384;29;1339;-77
2022/05/13 00:17:56;;;;;;;337.23;155.60;;;;;;;18.39;60.90;99881.69;334544;29;982;-75
2022/05/13 00:18:07;;;;;;;341.13;157.32;;;;;;;18.40;60.89;99877.22;337125;29;1392;-76
2022/05/13 00:18:17;;;;;;;344.27;158.30;;;;;;;18.40;60.74;99877.22;336523;29;1475;-76
2022/05/13 00:18:28;;;;;;;341.67;155.70;;;;;;;18.36;60.78;99873.09;339689;29;1318;-76
2022/05/13 00:18:38;;;;;;;339.47;154.13;;;;;;;18.37;60.90;99877.44;338485;29;1316;-76
2022/05/13 00:18:49;;;;;;;340.05;154.18;;;;;;;18.36;60.80;99875.75;338420;29;919;-75
2022/05/13 00:18:59;;;;;;;341.93;155.77;;;;;;;18.36;61.05;99878.38;338551;29;1110;-75
2022/05/13 00:19:11;;;;;;;342.38;156.35;;;;;;;18.35;61.02;99874.03;337106;29;1461;-77
2022/05/13 00:19:21;;;;;;;343.55;155.95;;;;;;;18.36;60.71;99875.75;336413;29;2068;-77
2022/05/13 00:19:32;;;;;;;341.52;154.73;;;;;;;18.35;60.96;99879.34;339011;29;1270;-76
2022/05/13 00:19:42;;;;;;;342.77;157.10;;;;;;;18.33;60.87;99870.66;339728;29;1269;-76
2022/05/13 00:19:52;;;;;;;343.05;155.88;;;;;;;18.35;61.03;99874.03;336951;29;1720;-76
2022/05/13 00:20:03;;;;;;;346.23;157.00;;;;;;;18.30;60.99;99874.34;337141;29;1146;-76
2022/05/13 00:20:14;;;;;;;345.25;153.70;;;;;;;18.32;61.14;99879.53;341008;29;1406;-76
2022/05/13 00:20:25;;;;;;;342.27;154.82;;;;;;;18.29;61.16;99870.84;335826;29;1176;-76
2022/05/13 00:20:35;;;;;;;342.80;154.05;;;;;;;18.28;61.12;99874.47;335893;29;902;-77
2022/05/13 00:20:46;;;;;;;344.87;156.27;;;;;;;18.28;60.98;99873.59;338386;29;1206;-76
2022/05/13 00:20:58;;;;;;;346.40;156.75;;;;;;;18.28;60.91;99874.47;339726;29;933;-75
2022/05/13 00:21:08;;;;;;;342.88;157.13;;;;;;;18.27;60.96;99870.09;337187;29;1411;-76
2022/05/13 00:21:19;;;;;;;342.97;159.83;;;;;;;18.29;61.16;99864.72;337094;29;1202;-75
2022/05/13 00:21:29;;;;;;;344.48;158.93;;;;;;;18.27;61.28;99872.75;337000;29;2265;-77
2022/05/13 00:21:40;;;;;;;343.93;158.47;;;;;;;18.27;61.16;99877.22;338376;29;1178;-76
2022/05/13 00:21:50;;;;;;;342.55;157.43;;;;;;;18.28;61.17;99873.59;338401;29;1343;-78
2022/05/13 00:22:00;;;;;;;341.37;159.27;;;;;;;18.26;61.16;99868.41;337035;29;1173;-77
2022/05/13 00:22:12;;;;;;;340.48;158.95;;;;;;;18.27;61.31;99878.06;339697;29;1295;-75
2022/05/13 00:22:22;;;;;;;339.25;157.90;;;;;;;18.28;61.31;99869.16;339162;29;2093;-74
2022/05/13 00:22:33;;;;;;;338.13;155.10;;;;;;;18.27;61.32;99872.75;338877;29;866;-75
2022/05/13 00:22:45;;;;;;;337.03;152.23;;;;;;;18.27;61.22;99870.09;337091;29;1008;-75
2022/05/13 00:22:56;;;;;;;339.05;153.00;;;;;;;18.27;61.53;99869.25;337118;29;866;-76
2022/05/13 00:23:06;;;;;;;339.40;155.35;;;;;;;18.28;61.34;99873.59;338436;29;1333;-75
2022/05/13 00:23:17;;;;;;;341.42;157.05;;;;;;;18.28;61.28;99869.16;339688;29;1083;-76
2022/05/13 00:23:27;;;;;;;341.77;158.03;;;;;;;18.28;61.46;99866.50;337684;29;1225;-78
2022/05/13 00:23:38;;;;;;;341.60;157.77;;;;;;;18.25;61.27;99874.66;338471;29;866;-75
2022/05/13 00:23:49;;;;;;;341.67;158.53;;;;;;;18.25;61.07;99874.66;338671;29;1354;-80
2022/05/13 00:23:59;;;;;;;342.45;155.90;;;;;;;18.24;61.45;99872.97;335659;29;2147;-76
2022/05/13 00:24:10;;;;;;;339.00;153.93;;;;;;;18.21;61.47;99867.03;335716;29;1214;-77
2022/05/13 00:24:20;;;;;;;339.45;154.63;;;;;;;18.20;61.48;99871.47;337098;29;968;-78
2022/05/13 00:24:31;;;;;;;336.93;155.23;;;;;;;18.17;61.29;99866.41;338340;29;1222;-77
2022/05/13 00:24:41;;;;;;;339.38;155.65;;;;;;;18.19;61.50;99868.97;339364;29;1013;-77
2022/05/13 00:24:54;;;;;;;338.27;153.87;;;;;;;18.20;61.30;99866.19;338379;29;1295;-77
2022/05/13 00:25:05;;;;;;;335.55;149.10;;;;;;;18.18;61.47;99862.81;340683;29;1081;-77
2022/05/13 00:25:18;;;;;;;335.05;148.93;;;;;;;18.19;61.29;99864.50;338352;29;1201;-76
2022/05/13 00:25:30;;;;;;;334.20;150.07;;;;;;;18.21;61.30;99867.03;335689;29;1558;-76
2022/05/13 00:25:41;;;;;;;335.77;149.98;;;;;;;18.20;61.32;99866.19;335160;29;2961;-76
2022/05/13 00:25:52;;;;;;;336.10;151.27;;;;;;;18.20;61.12;99868.81;337814;29;5798;-76
2022/05/13 00:26:02;;;;;;;339.67;155.20;;;;;;;18.20;61.09;99867.97;339546;29;3549;-77
2022/05/13 00:26:13;;;;;;;342.67;159.30;;;;;;;18.16;61.17;99864.72;336852;29;2108;-77
2022/05/13 00:26:23;;;;;;;344.10;160.90;;;;;;;18.12;61.00;99867.69;339314;29;6605;-77
2022/05/13 00:26:34;;;;;;;341.17;159.83;;;;;;;18.11;60.98;99866.84;340135;28;1307;-77
2022/05/13 00:26:44;;;;;;;339.13;158.82;;;;;;;18.13;61.47;99864.94;335729;29;1300;-77
2022/05/13 00:26:55;;;;;;;338.50;156.40;;;;;;;18.12;60.87;99860.59;336979;29;1365;-76
2022/05/13 00:27:05;;;;;;;338.50;153.87;;;;;;;18.11;61.04;99866.84;337091;29;1344;-77
2022/05/13 00:27:16;;;;;;;337.90;152.57;;;;;;;18.09;61.00;99863.44;338307;29;1338;-75
2022/05/13 00:27:26;;;;;;;338.83;155.53;;;;;;;18.10;61.04;99867.78;336886;29;1876;-80
2022/05/13 00:27:37;;;;;;;340.17;158.23;;;;;;;18.11;61.01;99866.84;338151;29;901;-82
2022/05/13 00:27:47;;;;;;;341.30;160.43;;;;;;;18.10;60.77;99865.13;337177;29;904;-76
2022/05/13 00:27:59;;;;;;;339.75;157.10;;;;;;;18.09;60.89;99865.25;334530;29;890;-75
2022/05/13 00:28:09;;;;;;;339.52;154.57;;;;;;;18.11;60.88;99864.19;336879;29;1283;-75
2022/05/13 00:28:20;;;;;;;341.63;155.20;;;;;;;18.11;60.76;99861.53;339728;29;821;-75
2022/05/13 00:28:30;;;;;;;341.90;154.17;;;;;;;18.11;60.96;99869.47;337123;29;936;-75
2022/05/13 00:28:40;;;;;;;340.55;154.50;;;;;;;18.09;60.86;99863.44;338443;29;1235;-75
2022/05/13 00:28:51;;;;;;;339.47;154.03;;;;;;;18.09;61.04;99874.03;337233;29;1912;-75
2022/05/13 00:29:01;;;;;;;337.42;153.95;;;;;;;18.09;60.93;99871.38;339293;29;1974;-76
2022/05/13 00:29:11;;;;;;;337.90;155.00;;;;;;;18.08;60.80;99869.69;337076;29;762;-75
2022/05/13 00:29:22;;;;;;;335.40;151.47;;;;;;;18.07;60.78;99860.03;336950;29;1203;-75
2022/05/13 00:29:33;;;;;;;335.25;151.63;;;;;;;18.07;60.91;99868.00;334901;29;1226;-75
2022/05/13 00:29:43;;;;;;;336.48;150.73;;;;;;;18.05;60.82;99867.25;338366;29;1313;-75
2022/05/13 00:29:54;;;;;;;338.87;153.27;;;;;;;18.09;60.89;99862.59;341089;29;1328;-75
2022/05/13 00:30:06;;;;;;;339.58;153.23;;;;;;;18.11;60.83;99869.47;337090;29;1226;-75
2022/05/13 00:30:18;;;;;;;338.80;153.02;;;;;;;18.13;60.79;99875.53;335719;29;1300;-75
2022/05/13 00:30:30;;;;;;;339.23;153.57;;;;;;;18.12;60.84;99871.19;338329;29;1312;-75
2022/05/13 00:30:41;;;;;;;342.65;156.95;;;;;;;18.14;60.75;99876.38;339508;29;1470;-75
2022/05/13 00:30:52;;;;;;;343.55;157.98;;;;;;;18.14;60.80;99869.28;339712;29;1552;-75
2022/05/13 00:31:04;;;;;;;340.25;156.63;;;;;;;18.14;60.71;99866.63;339610;29;1347;-75
2022/05/13 00:31:15;;;;;;;333.88;152.95;;;;;;;18.13;60.77;99872.88;337024;29;1392;-75
2022/05/13 00:31:25;;;;;;;333.40;152.53;;;;;;;18.13;60.72;99869.38;337165;29;1016;-75
2022/05/13 00:31:36;;;;;;;335.42;153.50;;;;;;;18.14;61.10;99871.94;334669;29;918;-75
2022/05/13 00:31:47;;;;;;;337.73;154.88;;;;;;;18.13;60.56;99875.53;334434;29;1033;-75
2022/05/13 00:31:57;;;;;;;336.03;154.07;;;;;;;18.14;60.98;99866.63;337015;29;1262;-75
2022/05/13 00:32:08;;;;;;;336.92;154.57;;;;;;;18.15;60.86;99863.03;339602;29;1224;-75
2022/05/13 00:32:18;;;;;;;339.10;154.17;;;;;;;18.18;60.73;99868.13;336024;29;1406;-75
2022/05/13 00:32:29;;;;;;;341.27;154.63;;;;;;;18.16;60.72;99870.03;338212;29;2712;-76
2022/05/13 00:32:39;;;;;;;341.10;156.77;;;;;;;18.15;60.75;99876.28;336959;29;1432;-76
2022/05/13 00:32:50;;;;;;;337.88;156.98;;;;;;;18.15;60.60;99862.19;335900;29;994;-76
2022/05/13 00:33:00;;;;;;;335.10;154.70;;;;;;;18.14;60.56;99863.97;337142;29;871;-75
2022/05/13 00:33:11;;;;;;;333.87;152.70;;;;;;;18.14;60.59;99866.63;335905;29;847;-75
2022/05/13 00:33:21;;;;;;;333.40;152.43;;;;;;;18.13;60.51;99864.94;335787;29;970;-75
2022/05/13 00:33:32;;;;;;;332.40;153.65;;;;;;;18.14;60.62;99865.78;336913;29;1988;-75
2022/05/13 00:33:42;;;;;;;333.48;152.73;;;;;;;18.13;60.83;99869.38;339234;29;1911;-75
2022/05/13 00:33:53;;;;;;;336.80;155.67;;;;;;;18.14;60.79;99865.78;342129;28;1258;-75
2022/05/13 00:34:04;;;;;;;337.20;154.00;;;;;;;18.13;60.60;99872.88;339810;29;926;-75
2022/05/13 00:34:14;;;;;;;338.50;154.48;;;;;;;18.15;60.66;99864.81;338417;29;1181;-75
2022/05/13 00:34:25;;;;;;;336.57;153.83;;;;;;;18.12;60.73;99863.22;341164;29;798;-75
2022/05/13 00:34:35;;;;;;;337.73;155.00;;;;;;;18.11;61.01;99866.84;337075;29;1434;-75
2022/05/13 00:34:48;;;;;;;335.80;154.10;;;;;;;18.12;60.81;99873.81;338263;29;1578;-75
2022/05/13 00:34:59;;;;;;;335.15;152.40;;;;;;;18.12;61.10;99873.81;334993;29;5318;-75
2022/05/13 00:35:09;;;;;;;331.65;150.73;;;;;;;18.11;60.89;99869.47;340639;29;3572;-77
2022/05/13 00:35:20;;;;;;;338.83;155.07;;;;;;;18.10;61.30;99870.44;337286;29;1970;-77
2022/05/13 00:35:30;;;;;;;341.58;156.82;;;;;;;18.11;61.22;99868.63;335892;29;3823;-76
2022/05/13 00:35:41;;;;;;;344.73;157.45;;;;;;;18.11;60.93;99872.13;340673;29;1396;-76
2022/05/13 00:35:51;;;;;;;338.60;154.97;;;;;;;18.10;61.29;99865.13;339525;29;1483;-76
2022/05/13 00:36:02;;;;;;;338.63;154.48;;;;;;;18.12;61.13;99872.97;334556;29;961;-75
2022/05/13 00:36:12;;;;;;;337.97;155.40;;;;;;;18.07;61.37;99870.63;337025;29;1284;-75
2022/05/13 00:36:23;;;;;;;335.50;152.98;;;;;;;18.07;61.24;99875.09;335810;29;874;-75
2022/05/13 00:36:33;;;;;;;337.73;154.73;;;;;;;18.07;61.33;99869.78;338427;29;943;-75
2022/05/13 00:36:43;;;;;;;337.87;156.43;;;;;;;18.06;61.20;99866.28;336515;29;1669;-75
2022/05/13 00:36:54;;;;;;;340.95;158.90;;;;;;;18.07;61.17;99870.63;340870;29;1336;-75
2022/05/13 00:37:04;;;;;;;340.13;157.13;;;;;;;18.08;61.35;99863.53;339725;29;1175;-75
2022/05/13 00:37:15;;;;;;;338.80;154.15;;;;;;;18.05;61.20;99864.59;339606;29;1235;-75
2022/05/13 00:37:25;;;;;;;337.30;152.30;;;;;;;18.05;61.40;99869.03;336431;29;1849;-75
2022/05/13 00:37:36;;;;;;;337.60;152.45;;;;;;;18.04;61.23;99870.84;336984;29;1418;-75
2022/05/13 00:37:46;;;;;;;336.33;151.93;;;;;;;18.05;61.75;99872.53;339726;29;894;-75
2022/05/13 00:37:57;;;;;;;336.10;153.85;;;;;;;18.04;61.34;99867.34;339681;29;958;-75
2022/05/13 00:38:07;;;;;;;337.20;154.68;;;;;;;18.01;61.66;99865.75;337045;29;1263;-75
2022/05/13 00:38:18;;;;;;;341.07;156.93;;;;;;;18.02;61.63;99866.59;335757;29;959;-78
2022/05/13 00:38:28;;;;;;;341.02;155.68;;;;;;;18.04;61.58;99870.84;336029;29;1759;-77
2022/05/13 00:38:39;;;;;;;340.20;154.30;;;;;;;18.05;61.88;99872.53;336610;29;1426;-77
2022/05/13 00:38:49;;;;;;;341.52;154.10;;;;;;;18.03;61.62;99871.78;337008;29;1275;-76
2022/05/13 00:39:00;;;;;;;340.27;155.27;;;;;;;18.02;61.51;99878.03;337540;29;1292;-76
2022/05/13 00:39:10;;;;;;;339.15;155.40;;;;;;;18.02;61.44;99869.25;337037;29;1355;-76
2022/05/13 00:39:21;;;;;;;335.93;155.03;;;;;;;18.01;61.57;99876.34;337163;29;1281;-76
2022/05/13 00:39:31;;;;;;;335.17;154.70;;;;;;;18.03;61.41;99873.59;335463;29;1000;-76
2022/05/13 00:39:42;;;;;;;334.80;154.37;;;;;;;18.04;61.54;99870.00;339594;29;1304;-76
2022/05/13 00:39:52;;;;;;;338.63;155.20;;;;;;;18.03;61.06;99869.16;338388;29;1576;-76
2022/05/13 00:40:04;;;;;;;340.27;154.27;;;;;;;18.03;61.38;99874.44;335863;29;1189;-76
2022/05/13 00:40:15;;;;;;;339.10;152.77;;;;;;;18.04;61.48;99867.34;340948;29;1428;-76
2022/05/13 00:40:25;;;;;;;338.13;151.50;;;;;;;18.05;61.16;99872.53;339683;29;1210;-76
2022/05/13 00:40:36;;;;;;;336.37;155.37;;;;;;;18.03;61.31;99869.16;337075;29;936;-76
2022/05/13 00:40:46;;;;;;;334.75;154.20;;;;;;;18.05;61.13;99872.53;335944;29;842;-76
2022/05/13 00:40:56;;;;;;;338.30;154.47;;;;;;;18.05;61.27;99875.19;337121;29;1164;-76
2022/05/13 00:41:07;;;;;;;340.27;153.07;;;;;;;18.06;61.25;99873.38;335859;29;888;-76
2022/05/13 00:41:17;;;;;;;340.87;154.23;;;;;;;18.03;61.21;99874.44;335753;29;938;-77
2022/05/13 00:41:28;;;;;;;338.80;154.18;;;;;;;18.04;61.63;99870.00;336973;29;1230;-77
2022/05/13 00:41:38;;;;;;;339.20;155.83;;;;;;;18.02;61.47;99870.09;335782;29;1213;-76
2022/05/13 00:41:49;;;;;;;338.80;154.65;;;;;;;18.00;61.27;99872.00;337066;29;1372;-76
2022/05/13 00:42:10;;;;;;;338.03;154.10;;;;;;;17.98;61.45;99876.56;337138;29;1068;-76
2022/05/13 00:42:22;;;;;;;334.75;150.00;;;;;;;17.97;61.70;99874.84;338188;29;2072;-76
2022/05/13 00:42:32;;;;;;;335.23;150.88;;;;;;;17.98;61.68;99871.25;338425;29;823;-76
2022/05/13 00:42:43;;;;;;;336.47;153.90;;;;;;;17.99;61.87;99878.25;338335;29;1253;-76
2022/05/13 00:42:58;;;;;;;337.92;155.98;;;;;;;18.00;61.78;99874.66;334495;29;1320;-76
2022/05/13 00:43:10;;;;;;;338.30;154.38;;;;;;;18.01;61.71;99873.69;335938;29;1154;-73
2022/05/13 00:43:59;;;;;;;337.27;153.35;;;;;;;18.02;61.97;99878.03;339443;29;1734;-76
2022/05/13 00:44:09;;;;;;;340.65;155.57;;;;;;;18.03;61.93;99879.75;334543;29;5752;-74
2022/05/13 00:44:21;;;;;;;336.77;152.07;;;;;;;18.03;61.92;99874.44;332465;29;6222;-75
2022/05/13 00:44:31;;;;;;;338.27;153.95;;;;;;;18.03;61.96;99874.44;332936;29;1775;-75
2022/05/13 00:44:41;;;;;;;338.17;154.60;;;;;;;18.04;62.01;99873.50;336839;29;6149;-75
2022/05/13 00:44:52;;;;;;;338.98;157.43;;;;;;;18.06;62.09;99876.88;334327;29;1352;-75
2022/05/13 00:45:03;;;;;;;335.23;153.97;;;;;;;18.06;62.01;99876.88;336936;29;1235;-76
2022/05/13 00:45:14;;;;;;;336.52;154.20;;;;;;;18.07;62.06;99877.75;335720;29;1006;-76
2022/05/13 00:45:24;;;;;;;337.70;152.70;;;;;;;18.06;62.21;99879.53;337002;29;953;-76
2022/05/13 00:45:35;;;;;;;338.03;154.93;;;;;;;18.06;61.90;99871.59;335693;29;1281;-75
2022/05/13 00:45:45;;;;;;;335.70;152.82;;;;;;;18.04;62.16;99870.84;333176;29;1469;-75
2022/05/13 00:45:55;;;;;;;340.37;155.83;;;;;;;18.05;62.01;99871.69;334281;29;1564;-75
2022/05/13 00:46:06;;;;;;;342.92;156.88;;;;;;;18.05;62.13;99874.34;335771;29;957;-75
2022/05/13 00:46:16;;;;;;;344.67;156.90;;;;;;;18.01;62.50;99870.19;335720;29;1441;-75
2022/05/13 00:46:28;;;;;;;343.80;155.07;;;;;;;18.02;62.11;99877.19;334418;29;914;-75
2022/05/13 00:46:38;;;;;;;342.15;154.75;;;;;;;18.02;61.97;99866.59;333175;29;1510;-75
2022/05/13 00:46:49;;;;;;;340.95;156.68;;;;;;;18.00;62.17;99872.00;335698;29;855;-75
2022/05/13 00:46:59;;;;;;;339.20;155.60;;;;;;;17.97;62.43;99874.00;335175;29;1345;-76
2022/05/13 00:47:11;;;;;;;338.45;155.18;;;;;;;17.96;62.65;99873.16;334683;29;1145;-76
2022/05/13 00:47:22;;;;;;;339.40;154.65;;;;;;;17.92;62.38;99869.00;332974;29;2034;-76
2022/05/13 00:47:32;;;;;;;341.50;156.02;;;;;;;17.92;62.30;99872.50;336042;29;1343;-75
2022/05/13 00:47:43;;;;;;;342.83;154.97;;;;;;;17.94;62.18;99875.06;335730;29;901;-76
2022/05/13 00:47:53;;;;;;;340.60;155.20;;;;;;;17.94;62.31;99875.06;339514;29;1363;-76
2022/05/13 00:48:04;;;;;;;339.93;154.73;;;;;;;17.96;62.30;99873.16;336139;29;2030;-76
2022/05/13 00:48:14;;;;;;;340.10;155.13;;;;;;;17.95;61.84;99872.31;335448;29;1507;-76
2022/05/13 00:48:25;;;;;;;341.20;153.93;;;;;;;17.94;62.41;99872.41;336769;29;1031;-76
2022/05/13 00:48:35;;;;;;;340.48;154.27;;;;;;;17.93;62.29;99868.06;334497;29;1108;-76
2022/05/13 00:48:46;;;;;;;342.17;155.27;;;;;;;17.97;62.36;99877.50;335779;29;1833;-76
2022/05/13 00:48:58;;;;;;;340.92;154.68;;;;;;;17.94;62.55;99877.72;332988;29;2124;-76
2022/05/13 00:49:11;;;;;;;341.85;155.30;;;;;;;17.93;62.52;99873.34;338791;29;1693;-76
2022/05/13 00:49:23;;;;;;;343.05;155.45;;;;;;;17.94;62.56;99880.34;337052;29;977;-76
2022/05/13 00:49:33;;;;;;;341.52;154.50;;;;;;;17.91;62.73;99875.25;335777;29;1007;-76
2022/05/13 00:49:43;;;;;;;339.37;154.93;;;;;;;17.89;62.78;99878.00;339467;29;1672;-75
2022/05/13 00:49:54;;;;;;;338.45;153.45;;;;;;;17.92;62.79;99879.59;338286;29;1240;-76
2022/05/13 00:50:07;;;;;;;340.80;154.90;;;;;;;17.92;62.67;99877.81;335377;29;2404;-75
2022/05/13 00:50:17;;;;;;;341.42;154.15;;;;;;;17.93;62.57;99870.72;337618;29;1182;-76
2022/05/13 00:50:30;;;;;;;342.88;153.82;;;;;;;17.94;62.52;99875.06;336844;29;2478;-76
2022/05/13 00:50:40;;;;;;;344.00;153.30;;;;;;;17.95;62.64;99872.31;339197;29;1403;-76
2022/05/13 00:50:50;;;;;;;344.60;154.77;;;;;;;17.96;62.35;99870.50;339482;29;1556;-76
2022/05/13 00:51:01;;;;;;;342.67;155.40;;;;;;;17.95;62.44;99871.47;337052;29;1202;-76